EPPO/POZ METAR and TAF weather

Enter ICAO airport designator
Station Type Date Time Source
EPPO METAR 2021/10/22 19:30 UTC NOAA

EPPO 221930Z 26013KT 9999 FEW015 06/05 Q1009


Station Type Date Time Source
EPPO Decoded METAR 2021/10/22 19:30 UTC NOAA

Poznan, Poland (EPPO) 52-25N 016-50E 92M
Oct 22, 2021 - 03:30 PM EDT / 2021.10.22 1930 UTC
Wind: from the W (260 degrees) at 15 MPH (13 KT):0
Visibility: greater than 7 mile(s):0
Sky conditions: mostly clear
Temperature: 42 F (6 C)
Dew Point: 41 F (5 C)
Relative Humidity: 93%
Pressure (altimeter): 29.80 in. Hg (1009 hPa)
ob: EPPO 221930Z 26013KT 9999 FEW015 06/05 Q1009
cycle: 19

Station Type Date Time Source
EPPO TAF 2021/10/22 18:33 UTC NOAA

TAF EPPO 221730Z 2218/2318 28013KT 9999 BKN025
TEMPO 2218/2220 28020G35KT -SHRA BKN020CB
TEMPO 2220/2315 28015G25KT BKN020CB

Example: see airport list